sensor_id;sensor_type;location;lat;lon;timestamp;P1;durP1;ratioP1;P2;durP2;ratioP2
41446;SDS011;27185;52.040;4.490;2024-02-04T00:01:18;24.40;;;7.07;;
41446;SDS011;27185;52.040;4.490;2024-02-04T00:04:03;23.58;;;7.60;;
41446;SDS011;27185;52.040;4.490;2024-02-04T00:06:49;23.75;;;8.32;;
41446;SDS011;27185;52.040;4.490;2024-02-04T00:09:35;18.65;;;7.10;;
41446;SDS011;27185;52.040;4.490;2024-02-04T00:12:20;23.52;;;7.95;;
41446;SDS011;27185;52.040;4.490;2024-02-04T00:15:06;23.48;;;7.40;;
41446;SDS011;27185;52.040;4.490;2024-02-04T00:17:53;22.90;;;7.22;;
41446;SDS011;27185;52.040;4.490;2024-02-04T00:20:38;21.25;;;7.07;;
41446;SDS011;27185;52.040;4.490;2024-02-04T00:23:24;19.27;;;7.25;;
41446;SDS011;27185;52.040;4.490;2024-02-04T00:26:09;26.98;;;8.98;;
41446;SDS011;27185;52.040;4.490;2024-02-04T00:28:55;20.13;;;6.90;;
41446;SDS011;27185;52.040;4.490;2024-02-04T00:31:40;19.05;;;8.15;;
41446;SDS011;27185;52.040;4.490;2024-02-04T00:34:26;21.83;;;7.45;;
41446;SDS011;27185;52.040;4.490;2024-02-04T00:37:11;21.65;;;7.55;;
41446;SDS011;27185;52.040;4.490;2024-02-04T00:39:57;17.88;;;7.18;;
41446;SDS011;27185;52.040;4.490;2024-02-04T00:42:42;21.85;;;8.02;;
41446;SDS011;27185;52.040;4.490;2024-02-04T00:45:28;22.25;;;7.30;;
41446;SDS011;27185;52.040;4.490;2024-02-04T00:48:14;17.85;;;7.88;;
41446;SDS011;27185;52.040;4.490;2024-02-04T00:50:59;21.20;;;9.13;;
41446;SDS011;27185;52.040;4.490;2024-02-04T00:53:45;30.92;;;8.98;;
41446;SDS011;27185;52.040;4.490;2024-02-04T00:56:31;24.58;;;8.27;;
41446;SDS011;27185;52.040;4.490;2024-02-04T00:59:16;19.75;;;7.68;;
41446;SDS011;27185;52.040;4.490;2024-02-04T01:02:02;25.80;;;8.32;;
41446;SDS011;27185;52.040;4.490;2024-02-04T01:04:48;26.45;;;9.68;;
41446;SDS011;27185;52.040;4.490;2024-02-04T01:07:35;26.52;;;8.07;;
41446;SDS011;27185;52.040;4.490;2024-02-04T01:10:21;20.38;;;8.27;;
41446;SDS011;27185;52.040;4.490;2024-02-04T01:13:06;21.95;;;7.05;;
41446;SDS011;27185;52.040;4.490;2024-02-04T01:15:52;19.38;;;7.68;;
41446;SDS011;27185;52.040;4.490;2024-02-04T01:18:37;20.30;;;7.03;;
41446;SDS011;27185;52.040;4.490;2024-02-04T01:21:23;20.10;;;7.70;;
41446;SDS011;27185;52.040;4.490;2024-02-04T01:24:10;20.48;;;7.70;;
41446;SDS011;27185;52.040;4.490;2024-02-04T01:26:56;23.05;;;7.35;;
41446;SDS011;27185;52.040;4.490;2024-02-04T01:29:41;18.45;;;8.10;;
41446;SDS011;27185;52.040;4.490;2024-02-04T01:32:27;21.90;;;7.18;;
41446;SDS011;27185;52.040;4.490;2024-02-04T01:35:12;16.25;;;6.78;;
41446;SDS011;27185;52.040;4.490;2024-02-04T01:38:00;17.83;;;8.43;;
41446;SDS011;27185;52.040;4.490;2024-02-04T01:40:45;18.95;;;6.57;;
41446;SDS011;27185;52.040;4.490;2024-02-04T01:43:31;22.45;;;7.97;;
41446;SDS011;27185;52.040;4.490;2024-02-04T01:46:17;20.10;;;6.85;;
41446;SDS011;27185;52.040;4.490;2024-02-04T01:49:02;28.90;;;8.90;;
41446;SDS011;27185;52.040;4.490;2024-02-04T01:51:48;26.45;;;8.20;;
41446;SDS011;27185;52.040;4.490;2024-02-04T01:54:34;22.52;;;7.75;;
41446;SDS011;27185;52.040;4.490;2024-02-04T01:57:22;21.17;;;6.97;;
41446;SDS011;27185;52.040;4.490;2024-02-04T02:00:08;23.83;;;7.40;;
41446;SDS011;27185;52.040;4.490;2024-02-04T02:02:55;22.40;;;6.97;;
41446;SDS011;27185;52.040;4.490;2024-02-04T02:05:44;21.42;;;7.70;;
41446;SDS011;27185;52.040;4.490;2024-02-04T02:08:30;21.98;;;6.97;;
41446;SDS011;27185;52.040;4.490;2024-02-04T02:11:21;28.35;;;8.32;;
41446;SDS011;27185;52.040;4.490;2024-02-04T02:14:19;23.48;;;7.93;;
41446;SDS011;27185;52.040;4.490;2024-02-04T02:17:11;21.85;;;6.82;;
41446;SDS011;27185;52.040;4.490;2024-02-04T02:20:06;22.73;;;7.60;;
41446;SDS011;27185;52.040;4.490;2024-02-04T02:23:06;16.27;;;6.15;;
41446;SDS011;27185;52.040;4.490;2024-02-04T02:25:52;29.23;;;6.90;;
41446;SDS011;27185;52.040;4.490;2024-02-04T02:28:40;17.77;;;5.07;;
41446;SDS011;27185;52.040;4.490;2024-02-04T02:31:26;19.90;;;6.00;;
41446;SDS011;27185;52.040;4.490;2024-02-04T02:34:11;21.52;;;7.00;;
41446;SDS011;27185;52.040;4.490;2024-02-04T02:43:15;13.23;;;5.82;;
41446;SDS011;27185;52.040;4.490;2024-02-04T02:46:01;22.17;;;5.93;;
41446;SDS011;27185;52.040;4.490;2024-02-04T02:48:47;17.80;;;6.18;;
41446;SDS011;27185;52.040;4.490;2024-02-04T02:51:33;15.63;;;5.20;;
41446;SDS011;27185;52.040;4.490;2024-02-04T02:54:19;19.40;;;6.10;;
41446;SDS011;27185;52.040;4.490;2024-02-04T02:57:04;19.95;;;6.13;;
41446;SDS011;27185;52.040;4.490;2024-02-04T02:59:50;21.70;;;7.65;;
41446;SDS011;27185;52.040;4.490;2024-02-04T03:02:35;21.92;;;7.90;;
41446;SDS011;27185;52.040;4.490;2024-02-04T03:05:21;24.52;;;7.68;;
41446;SDS011;27185;52.040;4.490;2024-02-04T03:08:07;20.15;;;7.10;;
41446;SDS011;27185;52.040;4.490;2024-02-04T03:10:52;22.08;;;7.38;;
41446;SDS011;27185;52.040;4.490;2024-02-04T03:13:38;18.83;;;7.65;;
41446;SDS011;27185;52.040;4.490;2024-02-04T03:16:24;24.10;;;7.15;;
41446;SDS011;27185;52.040;4.490;2024-02-04T03:19:10;22.52;;;7.50;;
41446;SDS011;27185;52.040;4.490;2024-02-04T03:21:55;21.17;;;8.32;;
41446;SDS011;27185;52.040;4.490;2024-02-04T03:24:41;25.35;;;8.93;;
41446;SDS011;27185;52.040;4.490;2024-02-04T03:27:27;25.40;;;9.18;;
41446;SDS011;27185;52.040;4.490;2024-02-04T03:30:13;22.38;;;9.55;;
41446;SDS011;27185;52.040;4.490;2024-02-04T03:32:58;23.55;;;9.50;;
41446;SDS011;27185;52.040;4.490;2024-02-04T03:35:44;34.05;;;10.73;;
41446;SDS011;27185;52.040;4.490;2024-02-04T03:38:29;30.70;;;10.98;;
41446;SDS011;27185;52.040;4.490;2024-02-04T03:41:15;21.83;;;8.88;;
41446;SDS011;27185;52.040;4.490;2024-02-04T03:44:01;31.60;;;8.63;;
41446;SDS011;27185;52.040;4.490;2024-02-04T03:46:50;31.42;;;8.45;;
41446;SDS011;27185;52.040;4.490;2024-02-04T03:49:35;32.35;;;8.88;;
41446;SDS011;27185;52.040;4.490;2024-02-04T03:52:21;22.80;;;7.60;;
41446;SDS011;27185;52.040;4.490;2024-02-04T03:55:07;24.63;;;8.18;;
41446;SDS011;27185;52.040;4.490;2024-02-04T03:57:54;24.10;;;7.72;;
41446;SDS011;27185;52.040;4.490;2024-02-04T04:00:40;18.03;;;6.50;;
41446;SDS011;27185;52.040;4.490;2024-02-04T04:03:25;25.85;;;8.13;;
41446;SDS011;27185;52.040;4.490;2024-02-04T04:06:11;30.92;;;8.25;;
41446;SDS011;27185;52.040;4.490;2024-02-04T04:08:57;25.13;;;8.82;;
41446;SDS011;27185;52.040;4.490;2024-02-04T04:11:44;27.55;;;8.98;;
41446;SDS011;27185;52.040;4.490;2024-02-04T04:14:29;23.50;;;8.30;;
41446;SDS011;27185;52.040;4.490;2024-02-04T04:17:15;20.58;;;8.70;;
41446;SDS011;27185;52.040;4.490;2024-02-04T04:20:00;24.42;;;8.35;;
41446;SDS011;27185;52.040;4.490;2024-02-04T04:22:46;25.42;;;9.15;;
41446;SDS011;27185;52.040;4.490;2024-02-04T04:25:32;30.60;;;10.10;;
41446;SDS011;27185;52.040;4.490;2024-02-04T04:28:18;27.65;;;10.43;;
41446;SDS011;27185;52.040;4.490;2024-02-04T04:31:04;29.83;;;11.32;;
41446;SDS011;27185;52.040;4.490;2024-02-04T04:33:49;23.90;;;9.95;;
41446;SDS011;27185;52.040;4.490;2024-02-04T04:36:37;29.67;;;10.43;;
41446;SDS011;27185;52.040;4.490;2024-02-04T04:39:22;30.25;;;10.82;;
41446;SDS011;27185;52.040;4.490;2024-02-04T04:42:08;32.17;;;11.70;;
41446;SDS011;27185;52.040;4.490;2024-02-04T04:44:54;23.67;;;10.18;;
41446;SDS011;27185;52.040;4.490;2024-02-04T04:47:39;34.15;;;11.35;;
41446;SDS011;27185;52.040;4.490;2024-02-04T04:50:25;35.55;;;11.30;;
41446;SDS011;27185;52.040;4.490;2024-02-04T04:53:10;33.75;;;13.13;;
41446;SDS011;27185;52.040;4.490;2024-02-04T04:55:56;32.97;;;11.25;;
41446;SDS011;27185;52.040;4.490;2024-02-04T04:58:42;31.40;;;11.50;;
41446;SDS011;27185;52.040;4.490;2024-02-04T05:01:27;37.53;;;13.20;;
41446;SDS011;27185;52.040;4.490;2024-02-04T05:04:13;31.15;;;11.82;;
41446;SDS011;27185;52.040;4.490;2024-02-04T05:06:59;31.25;;;12.20;;
41446;SDS011;27185;52.040;4.490;2024-02-04T05:09:45;31.40;;;12.02;;
41446;SDS011;27185;52.040;4.490;2024-02-04T05:12:31;33.20;;;10.90;;
41446;SDS011;27185;52.040;4.490;2024-02-04T05:15:17;25.38;;;9.63;;
41446;SDS011;27185;52.040;4.490;2024-02-04T05:18:03;40.65;;;13.25;;
41446;SDS011;27185;52.040;4.490;2024-02-04T05:20:49;34.58;;;11.15;;
41446;SDS011;27185;52.040;4.490;2024-02-04T05:23:36;29.40;;;11.90;;
41446;SDS011;27185;52.040;4.490;2024-02-04T05:26:22;40.90;;;12.23;;
41446;SDS011;27185;52.040;4.490;2024-02-04T05:29:07;36.88;;;12.75;;
41446;SDS011;27185;52.040;4.490;2024-02-04T05:31:53;38.63;;;12.85;;
41446;SDS011;27185;52.040;4.490;2024-02-04T05:34:38;21.05;;;11.05;;
41446;SDS011;27185;52.040;4.490;2024-02-04T05:37:24;35.67;;;11.90;;
41446;SDS011;27185;52.040;4.490;2024-02-04T05:40:09;33.25;;;10.50;;
41446;SDS011;27185;52.040;4.490;2024-02-04T05:42:55;24.13;;;8.75;;
41446;SDS011;27185;52.040;4.490;2024-02-04T05:45:41;25.35;;;8.57;;
41446;SDS011;27185;52.040;4.490;2024-02-04T05:48:27;25.73;;;9.30;;
41446;SDS011;27185;52.040;4.490;2024-02-04T05:51:12;25.00;;;8.48;;
41446;SDS011;27185;52.040;4.490;2024-02-04T05:53:58;22.05;;;7.70;;
41446;SDS011;27185;52.040;4.490;2024-02-04T05:56:43;16.00;;;6.70;;
41446;SDS011;27185;52.040;4.490;2024-02-04T05:59:29;25.27;;;6.85;;
41446;SDS011;27185;52.040;4.490;2024-02-04T06:02:14;19.65;;;7.15;;
41446;SDS011;27185;52.040;4.490;2024-02-04T06:05:00;16.23;;;6.80;;
41446;SDS011;27185;52.040;4.490;2024-02-04T06:07:46;13.75;;;6.28;;
41446;SDS011;27185;52.040;4.490;2024-02-04T06:10:32;23.55;;;6.82;;
41446;SDS011;27185;52.040;4.490;2024-02-04T06:13:17;19.08;;;6.53;;
41446;SDS011;27185;52.040;4.490;2024-02-04T06:16:03;19.48;;;6.03;;
41446;SDS011;27185;52.040;4.490;2024-02-04T06:18:49;21.10;;;5.90;;
41446;SDS011;27185;52.040;4.490;2024-02-04T06:21:34;18.52;;;7.13;;
41446;SDS011;27185;52.040;4.490;2024-02-04T06:24:20;19.40;;;6.88;;
41446;SDS011;27185;52.040;4.490;2024-02-04T06:27:06;18.15;;;6.20;;
41446;SDS011;27185;52.040;4.490;2024-02-04T06:29:56;16.30;;;7.55;;
41446;SDS011;27185;52.040;4.490;2024-02-04T06:32:42;17.45;;;8.30;;
41446;SDS011;27185;52.040;4.490;2024-02-04T06:35:27;15.93;;;7.38;;
41446;SDS011;27185;52.040;4.490;2024-02-04T06:38:13;15.70;;;7.03;;
41446;SDS011;27185;52.040;4.490;2024-02-04T06:40:58;22.92;;;7.47;;
41446;SDS011;27185;52.040;4.490;2024-02-04T06:43:44;20.80;;;8.02;;
41446;SDS011;27185;52.040;4.490;2024-02-04T06:46:31;18.40;;;6.68;;
41446;SDS011;27185;52.040;4.490;2024-02-04T06:49:16;19.05;;;6.20;;
41446;SDS011;27185;52.040;4.490;2024-02-04T06:52:03;21.17;;;5.85;;
41446;SDS011;27185;52.040;4.490;2024-02-04T06:54:49;17.75;;;4.93;;
41446;SDS011;27185;52.040;4.490;2024-02-04T06:57:35;15.15;;;5.15;;
41446;SDS011;27185;52.040;4.490;2024-02-04T07:00:21;18.00;;;5.32;;
41446;SDS011;27185;52.040;4.490;2024-02-04T07:03:07;11.45;;;4.40;;
41446;SDS011;27185;52.040;4.490;2024-02-04T07:05:52;15.43;;;4.75;;
41446;SDS011;27185;52.040;4.490;2024-02-04T07:08:38;21.15;;;4.68;;
41446;SDS011;27185;52.040;4.490;2024-02-04T07:11:24;11.05;;;3.83;;
41446;SDS011;27185;52.040;4.490;2024-02-04T07:14:11;13.32;;;4.03;;
41446;SDS011;27185;52.040;4.490;2024-02-04T07:16:58;13.60;;;4.53;;
41446;SDS011;27185;52.040;4.490;2024-02-04T07:19:43;16.67;;;4.63;;
41446;SDS011;27185;52.040;4.490;2024-02-04T07:22:29;19.00;;;6.03;;
41446;SDS011;27185;52.040;4.490;2024-02-04T07:25:14;24.92;;;8.00;;
41446;SDS011;27185;52.040;4.490;2024-02-04T07:28:00;24.80;;;7.63;;
41446;SDS011;27185;52.040;4.490;2024-02-04T07:30:47;27.50;;;8.27;;
41446;SDS011;27185;52.040;4.490;2024-02-04T07:33:33;22.40;;;6.93;;
41446;SDS011;27185;52.040;4.490;2024-02-04T07:36:19;23.08;;;6.55;;
41446;SDS011;27185;52.040;4.490;2024-02-04T07:39:04;22.30;;;6.85;;
41446;SDS011;27185;52.040;4.490;2024-02-04T07:41:50;21.33;;;6.78;;
41446;SDS011;27185;52.040;4.490;2024-02-04T07:44:35;20.15;;;5.57;;
41446;SDS011;27185;52.040;4.490;2024-02-04T07:47:21;23.67;;;6.15;;
41446;SDS011;27185;52.040;4.490;2024-02-04T07:50:07;23.83;;;6.07;;
41446;SDS011;27185;52.040;4.490;2024-02-04T07:52:53;15.80;;;5.28;;
41446;SDS011;27185;52.040;4.490;2024-02-04T07:55:38;21.23;;;6.63;;
41446;SDS011;27185;52.040;4.490;2024-02-04T07:58:24;25.40;;;6.00;;
41446;SDS011;27185;52.040;4.490;2024-02-04T08:01:11;22.33;;;6.03;;
41446;SDS011;27185;52.040;4.490;2024-02-04T08:03:57;20.67;;;4.50;;
41446;SDS011;27185;52.040;4.490;2024-02-04T08:06:42;14.77;;;4.07;;
41446;SDS011;27185;52.040;4.490;2024-02-04T08:09:28;12.32;;;3.97;;
41446;SDS011;27185;52.040;4.490;2024-02-04T08:12:13;13.27;;;3.55;;
41446;SDS011;27185;52.040;4.490;2024-02-04T08:14:59;18.55;;;4.05;;
41446;SDS011;27185;52.040;4.490;2024-02-04T08:17:45;13.05;;;3.30;;
41446;SDS011;27185;52.040;4.490;2024-02-04T08:20:31;13.65;;;3.13;;
41446;SDS011;27185;52.040;4.490;2024-02-04T08:23:16;10.10;;;2.70;;
41446;SDS011;27185;52.040;4.490;2024-02-04T08:26:02;12.95;;;2.50;;
41446;SDS011;27185;52.040;4.490;2024-02-04T08:28:48;9.93;;;1.90;;
41446;SDS011;27185;52.040;4.490;2024-02-04T08:31:34;8.68;;;2.30;;
41446;SDS011;27185;52.040;4.490;2024-02-04T08:34:19;9.57;;;1.63;;
41446;SDS011;27185;52.040;4.490;2024-02-04T08:37:08;12.27;;;2.45;;
41446;SDS011;27185;52.040;4.490;2024-02-04T08:39:54;7.22;;;1.80;;
41446;SDS011;27185;52.040;4.490;2024-02-04T08:42:40;10.52;;;2.22;;
41446;SDS011;27185;52.040;4.490;2024-02-04T08:45:26;6.28;;;1.50;;
41446;SDS011;27185;52.040;4.490;2024-02-04T08:48:12;8.13;;;1.85;;
41446;SDS011;27185;52.040;4.490;2024-02-04T08:50:57;8.63;;;2.00;;
41446;SDS011;27185;52.040;4.490;2024-02-04T08:53:43;4.97;;;1.13;;
41446;SDS011;27185;52.040;4.490;2024-02-04T08:56:29;6.93;;;1.58;;
41446;SDS011;27185;52.040;4.490;2024-02-04T08:59:14;7.43;;;1.30;;
41446;SDS011;27185;52.040;4.490;2024-02-04T09:02:00;7.78;;;1.45;;
41446;SDS011;27185;52.040;4.490;2024-02-04T09:04:46;5.75;;;1.02;;
41446;SDS011;27185;52.040;4.490;2024-02-04T09:07:32;4.40;;;1.05;;
41446;SDS011;27185;52.040;4.490;2024-02-04T09:10:17;7.60;;;1.25;;
41446;SDS011;27185;52.040;4.490;2024-02-04T09:13:03;6.47;;;1.10;;
41446;SDS011;27185;52.040;4.490;2024-02-04T09:15:49;6.28;;;0.93;;
41446;SDS011;27185;52.040;4.490;2024-02-04T09:18:35;5.43;;;0.70;;
41446;SDS011;27185;52.040;4.490;2024-02-04T09:21:21;6.40;;;0.70;;
41446;SDS011;27185;52.040;4.490;2024-02-04T09:24:07;5.78;;;0.70;;
41446;SDS011;27185;52.040;4.490;2024-02-04T09:26:52;3.28;;;0.77;;
41446;SDS011;27185;52.040;4.490;2024-02-04T09:29:38;1.85;;;0.55;;
41446;SDS011;27185;52.040;4.490;2024-02-04T09:32:24;5.55;;;0.68;;
41446;SDS011;27185;52.040;4.490;2024-02-04T09:35:09;6.32;;;0.70;;
41446;SDS011;27185;52.040;4.490;2024-02-04T09:37:55;4.80;;;0.60;;
41446;SDS011;27185;52.040;4.490;2024-02-04T09:40:41;6.85;;;0.80;;
41446;SDS011;27185;52.040;4.490;2024-02-04T09:43:26;1.73;;;0.50;;
41446;SDS011;27185;52.040;4.490;2024-02-04T09:46:12;2.58;;;0.55;;
41446;SDS011;27185;52.040;4.490;2024-02-04T09:48:58;4.85;;;0.80;;
41446;SDS011;27185;52.040;4.490;2024-02-04T09:51:45;7.05;;;1.65;;
41446;SDS011;27185;52.040;4.490;2024-02-04T09:54:31;5.43;;;1.50;;
41446;SDS011;27185;52.040;4.490;2024-02-04T09:57:19;9.95;;;2.10;;
41446;SDS011;27185;52.040;4.490;2024-02-04T10:00:04;9.35;;;1.55;;
41446;SDS011;27185;52.040;4.490;2024-02-04T10:02:50;8.52;;;1.92;;
41446;SDS011;27185;52.040;4.490;2024-02-04T10:05:38;7.75;;;2.25;;
41446;SDS011;27185;52.040;4.490;2024-02-04T10:08:24;7.93;;;1.67;;
41446;SDS011;27185;52.040;4.490;2024-02-04T10:11:10;6.35;;;1.50;;
41446;SDS011;27185;52.040;4.490;2024-02-04T10:13:55;7.57;;;1.80;;
41446;SDS011;27185;52.040;4.490;2024-02-04T10:16:41;8.10;;;1.90;;
41446;SDS011;27185;52.040;4.490;2024-02-04T10:19:27;6.97;;;1.63;;
41446;SDS011;27185;52.040;4.490;2024-02-04T10:22:12;7.07;;;1.70;;
41446;SDS011;27185;52.040;4.490;2024-02-04T10:25:07;6.95;;;1.58;;
41446;SDS011;27185;52.040;4.490;2024-02-04T10:27:54;11.02;;;1.50;;
41446;SDS011;27185;52.040;4.490;2024-02-04T10:30:40;10.93;;;1.80;;
41446;SDS011;27185;52.040;4.490;2024-02-04T10:33:26;18.60;;;2.08;;
41446;SDS011;27185;52.040;4.490;2024-02-04T10:36:12;7.65;;;1.63;;
41446;SDS011;27185;52.040;4.490;2024-02-04T10:38:57;8.65;;;1.38;;
41446;SDS011;27185;52.040;4.490;2024-02-04T10:41:50;9.55;;;2.10;;
41446;SDS011;27185;52.040;4.490;2024-02-04T10:44:36;10.07;;;1.35;;
41446;SDS011;27185;52.040;4.490;2024-02-04T10:47:25;12.65;;;1.63;;
41446;SDS011;27185;52.040;4.490;2024-02-04T10:50:19;9.20;;;1.50;;
41446;SDS011;27185;52.040;4.490;2024-02-04T10:53:05;14.30;;;1.23;;
41446;SDS011;27185;52.040;4.490;2024-02-04T10:55:56;8.48;;;1.25;;
41446;SDS011;27185;52.040;4.490;2024-02-04T10:58:46;9.05;;;1.63;;
41446;SDS011;27185;52.040;4.490;2024-02-04T11:01:32;10.88;;;1.65;;
41446;SDS011;27185;52.040;4.490;2024-02-04T11:04:18;7.68;;;1.38;;
41446;SDS011;27185;52.040;4.490;2024-02-04T11:07:04;9.68;;;1.40;;
41446;SDS011;27185;52.040;4.490;2024-02-04T11:09:51;6.57;;;1.35;;
41446;SDS011;27185;52.040;4.490;2024-02-04T11:12:38;16.50;;;1.90;;
41446;SDS011;27185;52.040;4.490;2024-02-04T11:15:28;6.53;;;1.10;;
41446;SDS011;27185;52.040;4.490;2024-02-04T11:24:41;9.82;;;1.30;;
41446;SDS011;27185;52.040;4.490;2024-02-04T11:27:44;6.15;;;1.27;;
41446;SDS011;27185;52.040;4.490;2024-02-04T11:30:34;6.53;;;1.13;;
41446;SDS011;27185;52.040;4.490;2024-02-04T11:33:21;12.82;;;1.48;;
41446;SDS011;27185;52.040;4.490;2024-02-04T11:36:07;9.05;;;1.33;;
41446;SDS011;27185;52.040;4.490;2024-02-04T11:38:58;8.30;;;1.00;;
41446;SDS011;27185;52.040;4.490;2024-02-04T11:41:44;7.30;;;1.30;;
41446;SDS011;27185;52.040;4.490;2024-02-04T11:44:34;6.07;;;1.00;;
41446;SDS011;27185;52.040;4.490;2024-02-04T11:47:26;7.45;;;1.10;;
41446;SDS011;27185;52.040;4.490;2024-02-04T11:50:11;6.88;;;1.15;;
41446;SDS011;27185;52.040;4.490;2024-02-04T11:53:10;11.75;;;1.35;;
41446;SDS011;27185;52.040;4.490;2024-02-04T11:56:01;10.88;;;1.15;;
41446;SDS011;27185;52.040;4.490;2024-02-04T11:58:48;13.07;;;1.58;;
41446;SDS011;27185;52.040;4.490;2024-02-04T12:01:34;8.95;;;1.23;;
41446;SDS011;27185;52.040;4.490;2024-02-04T12:04:20;9.88;;;1.33;;
41446;SDS011;27185;52.040;4.490;2024-02-04T12:07:08;7.20;;;1.17;;
41446;SDS011;27185;52.040;4.490;2024-02-04T12:09:53;9.48;;;1.83;;
41446;SDS011;27185;52.040;4.490;2024-02-04T12:12:40;6.97;;;1.00;;
41446;SDS011;27185;52.040;4.490;2024-02-04T12:15:26;9.60;;;1.00;;
41446;SDS011;27185;52.040;4.490;2024-02-04T12:18:13;9.55;;;1.05;;
41446;SDS011;27185;52.040;4.490;2024-02-04T12:21:04;8.07;;;1.15;;
41446;SDS011;27185;52.040;4.490;2024-02-04T12:23:50;12.77;;;1.77;;
41446;SDS011;27185;52.040;4.490;2024-02-04T12:26:36;9.13;;;1.05;;
41446;SDS011;27185;52.040;4.490;2024-02-04T12:29:22;11.25;;;1.80;;
41446;SDS011;27185;52.040;4.490;2024-02-04T12:32:08;9.93;;;1.33;;
41446;SDS011;27185;52.040;4.490;2024-02-04T12:34:54;9.05;;;1.23;;
41446;SDS011;27185;52.040;4.490;2024-02-04T12:37:51;12.73;;;1.73;;
41446;SDS011;27185;52.040;4.490;2024-02-04T12:40:37;6.25;;;1.33;;
41446;SDS011;27185;52.040;4.490;2024-02-04T12:43:23;10.10;;;1.85;;
41446;SDS011;27185;52.040;4.490;2024-02-04T12:46:09;8.25;;;0.90;;
41446;SDS011;27185;52.040;4.490;2024-02-04T12:48:56;9.15;;;1.90;;
41446;SDS011;27185;52.040;4.490;2024-02-04T12:51:43;9.13;;;1.80;;
41446;SDS011;27185;52.040;4.490;2024-02-04T12:54:28;15.52;;;2.30;;
41446;SDS011;27185;52.040;4.490;2024-02-04T12:57:23;11.43;;;2.08;;
41446;SDS011;27185;52.040;4.490;2024-02-04T13:00:10;11.70;;;2.05;;
41446;SDS011;27185;52.040;4.490;2024-02-04T13:02:57;15.18;;;2.58;;
41446;SDS011;27185;52.040;4.490;2024-02-04T13:05:42;13.50;;;2.53;;
41446;SDS011;27185;52.040;4.490;2024-02-04T13:08:28;8.43;;;2.33;;
41446;SDS011;27185;52.040;4.490;2024-02-04T13:11:19;11.35;;;1.90;;
41446;SDS011;27185;52.040;4.490;2024-02-04T13:14:05;15.02;;;2.78;;
41446;SDS011;27185;52.040;4.490;2024-02-04T13:16:51;11.93;;;1.98;;
41446;SDS011;27185;52.040;4.490;2024-02-04T13:19:37;11.07;;;1.90;;
41446;SDS011;27185;52.040;4.490;2024-02-04T13:22:23;15.80;;;2.65;;
41446;SDS011;27185;52.040;4.490;2024-02-04T13:25:09;18.90;;;2.25;;
41446;SDS011;27185;52.040;4.490;2024-02-04T13:27:55;14.07;;;2.78;;
41446;SDS011;27185;52.040;4.490;2024-02-04T13:30:40;13.60;;;1.77;;
41446;SDS011;27185;52.040;4.490;2024-02-04T13:33:26;13.38;;;1.73;;
41446;SDS011;27185;52.040;4.490;2024-02-04T13:36:11;17.17;;;1.95;;
41446;SDS011;27185;52.040;4.490;2024-02-04T13:38:57;11.23;;;1.63;;
41446;SDS011;27185;52.040;4.490;2024-02-04T13:41:43;15.57;;;2.60;;
41446;SDS011;27185;52.040;4.490;2024-02-04T13:44:29;17.40;;;2.72;;
41446;SDS011;27185;52.040;4.490;2024-02-04T13:47:14;17.17;;;2.55;;
41446;SDS011;27185;52.040;4.490;2024-02-04T13:50:00;12.88;;;2.08;;
41446;SDS011;27185;52.040;4.490;2024-02-04T13:52:46;18.10;;;2.75;;
41446;SDS011;27185;52.040;4.490;2024-02-04T13:55:32;20.92;;;3.10;;
41446;SDS011;27185;52.040;4.490;2024-02-04T13:58:17;17.73;;;2.88;;
41446;SDS011;27185;52.040;4.490;2024-02-04T14:01:04;18.75;;;3.15;;
41446;SDS011;27185;52.040;4.490;2024-02-04T14:03:49;21.73;;;3.97;;
41446;SDS011;27185;52.040;4.490;2024-02-04T14:06:35;20.38;;;3.88;;
41446;SDS011;27185;52.040;4.490;2024-02-04T14:09:21;20.98;;;3.08;;
41446;SDS011;27185;52.040;4.490;2024-02-04T14:12:07;23.33;;;3.42;;
41446;SDS011;27185;52.040;4.490;2024-02-04T14:14:53;22.63;;;3.75;;
41446;SDS011;27185;52.040;4.490;2024-02-04T14:17:38;23.83;;;3.95;;
41446;SDS011;27185;52.040;4.490;2024-02-04T14:20:24;20.27;;;2.88;;
41446;SDS011;27185;52.040;4.490;2024-02-04T14:23:09;22.85;;;3.72;;
41446;SDS011;27185;52.040;4.490;2024-02-04T14:25:55;16.38;;;3.45;;
41446;SDS011;27185;52.040;4.490;2024-02-04T14:28:43;23.50;;;3.40;;
41446;SDS011;27185;52.040;4.490;2024-02-04T14:31:29;19.45;;;2.72;;
41446;SDS011;27185;52.040;4.490;2024-02-04T14:34:15;18.67;;;3.03;;
41446;SDS011;27185;52.040;4.490;2024-02-04T14:37:00;21.52;;;3.67;;
41446;SDS011;27185;52.040;4.490;2024-02-04T14:39:46;25.02;;;4.30;;
41446;SDS011;27185;52.040;4.490;2024-02-04T14:42:33;22.73;;;3.45;;
41446;SDS011;27185;52.040;4.490;2024-02-04T14:45:18;17.33;;;3.20;;
41446;SDS011;27185;52.040;4.490;2024-02-04T14:48:04;18.45;;;3.95;;
41446;SDS011;27185;52.040;4.490;2024-02-04T14:50:50;20.70;;;4.00;;
41446;SDS011;27185;52.040;4.490;2024-02-04T14:53:36;24.25;;;4.03;;
41446;SDS011;27185;52.040;4.490;2024-02-04T14:56:22;27.85;;;4.38;;
41446;SDS011;27185;52.040;4.490;2024-02-04T14:59:09;27.27;;;3.33;;
41446;SDS011;27185;52.040;4.490;2024-02-04T15:01:55;17.92;;;3.53;;
41446;SDS011;27185;52.040;4.490;2024-02-04T15:04:41;21.63;;;4.50;;
41446;SDS011;27185;52.040;4.490;2024-02-04T15:07:27;23.02;;;3.40;;
41446;SDS011;27185;52.040;4.490;2024-02-04T15:10:12;24.75;;;3.83;;
41446;SDS011;27185;52.040;4.490;2024-02-04T15:12:58;24.55;;;4.13;;
41446;SDS011;27185;52.040;4.490;2024-02-04T15:15:44;21.48;;;3.40;;
41446;SDS011;27185;52.040;4.490;2024-02-04T15:18:30;23.10;;;4.18;;
41446;SDS011;27185;52.040;4.490;2024-02-04T15:21:16;24.88;;;4.43;;
41446;SDS011;27185;52.040;4.490;2024-02-04T15:24:02;21.17;;;3.30;;
41446;SDS011;27185;52.040;4.490;2024-02-04T15:26:51;26.73;;;4.20;;
41446;SDS011;27185;52.040;4.490;2024-02-04T15:29:37;21.25;;;4.47;;
41446;SDS011;27185;52.040;4.490;2024-02-04T15:32:26;22.17;;;3.72;;
41446;SDS011;27185;52.040;4.490;2024-02-04T15:35:12;27.10;;;5.22;;
41446;SDS011;27185;52.040;4.490;2024-02-04T15:38:01;25.65;;;3.65;;
41446;SDS011;27185;52.040;4.490;2024-02-04T15:40:48;34.40;;;4.85;;
41446;SDS011;27185;52.040;4.490;2024-02-04T15:43:33;22.83;;;4.75;;
41446;SDS011;27185;52.040;4.490;2024-02-04T15:46:19;25.33;;;4.75;;
41446;SDS011;27185;52.040;4.490;2024-02-04T15:49:05;24.45;;;4.53;;
41446;SDS011;27185;52.040;4.490;2024-02-04T15:51:55;21.67;;;4.53;;
41446;SDS011;27185;52.040;4.490;2024-02-04T15:54:41;29.38;;;5.03;;
41446;SDS011;27185;52.040;4.490;2024-02-04T15:57:28;30.13;;;5.35;;
41446;SDS011;27185;52.040;4.490;2024-02-04T16:00:18;27.15;;;4.97;;
41446;SDS011;27185;52.040;4.490;2024-02-04T16:03:10;24.27;;;3.88;;
41446;SDS011;27185;52.040;4.490;2024-02-04T16:05:57;31.55;;;5.97;;
41446;SDS011;27185;52.040;4.490;2024-02-04T16:08:43;31.25;;;5.07;;
41446;SDS011;27185;52.040;4.490;2024-02-04T16:11:30;36.85;;;5.78;;
41446;SDS011;27185;52.040;4.490;2024-02-04T16:14:27;36.35;;;6.50;;
41446;SDS011;27185;52.040;4.490;2024-02-04T16:17:15;37.97;;;6.90;;
41446;SDS011;27185;52.040;4.490;2024-02-04T16:20:02;39.33;;;5.97;;
41446;SDS011;27185;52.040;4.490;2024-02-04T16:22:50;30.20;;;5.30;;
41446;SDS011;27185;52.040;4.490;2024-02-04T16:25:35;31.38;;;6.25;;
41446;SDS011;27185;52.040;4.490;2024-02-04T16:28:21;30.92;;;5.85;;
41446;SDS011;27185;52.040;4.490;2024-02-04T16:31:07;23.95;;;4.82;;
41446;SDS011;27185;52.040;4.490;2024-02-04T16:33:53;32.00;;;6.15;;
41446;SDS011;27185;52.040;4.490;2024-02-04T16:36:40;34.33;;;6.50;;
41446;SDS011;27185;52.040;4.490;2024-02-04T16:39:27;31.80;;;5.57;;
41446;SDS011;27185;52.040;4.490;2024-02-04T16:42:13;32.90;;;5.60;;